sensor_id;sensor_type;location;lat;lon;timestamp;pressure;altitude;pressure_sealevel;temperature;humidity
32131;BME280;18639;50.716;7.086;2023-07-29T00:02:18;99578.50;;;17.87;100.00
32131;BME280;18639;50.716;7.086;2023-07-29T00:04:43;99572.63;;;17.85;100.00
32131;BME280;18639;50.716;7.086;2023-07-29T00:07:09;99589.13;;;17.94;100.00
32131;BME280;18639;50.716;7.086;2023-07-29T00:09:34;99588.78;;;17.97;100.00
32131;BME280;18639;50.716;7.086;2023-07-29T00:11:59;99586.19;;;17.97;100.00
32131;BME280;18639;50.716;7.086;2023-07-29T00:14:24;99568.38;;;17.92;100.00
32131;BME280;18639;50.716;7.086;2023-07-29T00:16:50;99585.06;;;17.99;100.00
32131;BME280;18639;50.716;7.086;2023-07-29T00:19:15;99588.31;;;18.09;100.00
32131;BME280;18639;50.716;7.086;2023-07-29T00:21:40;99575.38;;;18.08;100.00
32131;BME280;18639;50.716;7.086;2023-07-29T00:24:06;99583.03;;;18.18;100.00
32131;BME280;18639;50.716;7.086;2023-07-29T00:26:31;99556.41;;;18.06;100.00
32131;BME280;18639;50.716;7.086;2023-07-29T00:28:57;99552.00;;;18.06;100.00
32131;BME280;18639;50.716;7.086;2023-07-29T00:31:22;99573.56;;;18.17;100.00
32131;BME280;18639;50.716;7.086;2023-07-29T00:33:48;99576.38;;;18.15;100.00
32131;BME280;18639;50.716;7.086;2023-07-29T00:36:13;99568.69;;;18.14;100.00
32131;BME280;18639;50.716;7.086;2023-07-29T00:38:38;99575.69;;;18.21;100.00
32131;BME280;18639;50.716;7.086;2023-07-29T00:41:04;99577.81;;;18.18;100.00
32131;BME280;18639;50.716;7.086;2023-07-29T00:43:30;99564.09;;;18.07;100.00
32131;BME280;18639;50.716;7.086;2023-07-29T00:45:56;99541.41;;;18.00;100.00
32131;BME280;18639;50.716;7.086;2023-07-29T00:48:22;99551.38;;;18.04;100.00
32131;BME280;18639;50.716;7.086;2023-07-29T00:50:47;99564.09;;;18.07;100.00
32131;BME280;18639;50.716;7.086;2023-07-29T00:53:13;99543.22;;;17.99;100.00
32131;BME280;18639;50.716;7.086;2023-07-29T00:55:38;99567.03;;;18.13;100.00
32131;BME280;18639;50.716;7.086;2023-07-29T00:58:04;99539.78;;;17.99;100.00
32131;BME280;18639;50.716;7.086;2023-07-29T01:00:29;99532.09;;;17.97;100.00
32131;BME280;18639;50.716;7.086;2023-07-29T01:02:55;99549.59;;;18.05;100.00
32131;BME280;18639;50.716;7.086;2023-07-29T01:05:20;99535.84;;;18.03;100.00
32131;BME280;18639;50.716;7.086;2023-07-29T01:15:59;99549.22;;;18.08;100.00
32131;BME280;18639;50.716;7.086;2023-07-29T01:18:35;99537.31;;;18.05;100.00
32131;BME280;18639;50.716;7.086;2023-07-29T01:21:07;99537.63;;;18.11;100.00
32131;BME280;18639;50.716;7.086;2023-07-29T01:23:36;99552.16;;;18.21;100.00
32131;BME280;18639;50.716;7.086;2023-07-29T01:26:02;99556.22;;;18.24;100.00
32131;BME280;18639;50.716;7.086;2023-07-29T01:28:28;99548.22;;;18.25;100.00
32131;BME280;18639;50.716;7.086;2023-07-29T01:31:09;99537.09;;;18.23;100.00
32131;BME280;18639;50.716;7.086;2023-07-29T01:33:40;99531.56;;;18.18;100.00
32131;BME280;18639;50.716;7.086;2023-07-29T01:36:19;99544.44;;;18.28;100.00
32131;BME280;18639;50.716;7.086;2023-07-29T01:38:47;99533.16;;;18.27;100.00
32131;BME280;18639;50.716;7.086;2023-07-29T01:41:14;99502.16;;;18.08;100.00
32131;BME280;18639;50.716;7.086;2023-07-29T01:43:40;99543.78;;;18.34;100.00
32131;BME280;18639;50.716;7.086;2023-07-29T01:46:12;99517.97;;;18.23;100.00
32131;BME280;18639;50.716;7.086;2023-07-29T01:48:38;99516.00;;;18.25;100.00
32131;BME280;18639;50.716;7.086;2023-07-29T01:51:04;99526.44;;;18.33;100.00
32131;BME280;18639;50.716;7.086;2023-07-29T01:53:30;99534.94;;;18.43;100.00
32131;BME280;18639;50.716;7.086;2023-07-29T01:55:55;99503.59;;;18.27;100.00
32131;BME280;18639;50.716;7.086;2023-07-29T01:58:22;99519.25;;;18.35;100.00
32131;BME280;18639;50.716;7.086;2023-07-29T02:00:47;99498.53;;;18.25;100.00
32131;BME280;18639;50.716;7.086;2023-07-29T02:03:12;99501.59;;;18.29;100.00
32131;BME280;18639;50.716;7.086;2023-07-29T02:05:38;99519.41;;;18.41;100.00
32131;BME280;18639;50.716;7.086;2023-07-29T02:08:03;99521.84;;;18.43;100.00
32131;BME280;18639;50.716;7.086;2023-07-29T02:10:28;99523.47;;;18.44;100.00
32131;BME280;18639;50.716;7.086;2023-07-29T02:12:54;99498.66;;;18.32;100.00
32131;BME280;18639;50.716;7.086;2023-07-29T02:15:19;99515.31;;;18.39;100.00
32131;BME280;18639;50.716;7.086;2023-07-29T02:17:44;99462.13;;;18.16;100.00
32131;BME280;18639;50.716;7.086;2023-07-29T02:20:10;99444.50;;;18.01;100.00
32131;BME280;18639;50.716;7.086;2023-07-29T02:22:36;99472.69;;;18.22;100.00
32131;BME280;18639;50.716;7.086;2023-07-29T02:25:01;99451.03;;;18.05;100.00
32131;BME280;18639;50.716;7.086;2023-07-29T02:27:27;99511.03;;;18.46;100.00
32131;BME280;18639;50.716;7.086;2023-07-29T02:29:53;99481.66;;;18.36;100.00
32131;BME280;18639;50.716;7.086;2023-07-29T02:32:19;99491.25;;;18.43;100.00
32131;BME280;18639;50.716;7.086;2023-07-29T02:34:44;99477.03;;;18.38;100.00
32131;BME280;18639;50.716;7.086;2023-07-29T02:37:10;99497.94;;;18.46;100.00
32131;BME280;18639;50.716;7.086;2023-07-29T02:39:35;99503.19;;;18.46;100.00
32131;BME280;18639;50.716;7.086;2023-07-29T02:42:00;99525.91;;;18.54;100.00
32131;BME280;18639;50.716;7.086;2023-07-29T02:44:26;99515.09;;;18.48;100.00
32131;BME280;18639;50.716;7.086;2023-07-29T02:46:51;99503.34;;;18.44;100.00
32131;BME280;18639;50.716;7.086;2023-07-29T02:49:17;99513.00;;;18.44;100.00
32131;BME280;18639;50.716;7.086;2023-07-29T02:51:42;99466.22;;;18.10;100.00
32131;BME280;18639;50.716;7.086;2023-07-29T02:54:08;99503.19;;;18.38;100.00
32131;BME280;18639;50.716;7.086;2023-07-29T02:56:33;99525.56;;;18.48;100.00
32131;BME280;18639;50.716;7.086;2023-07-29T02:58:58;99525.41;;;18.50;100.00
32131;BME280;18639;50.716;7.086;2023-07-29T03:01:24;99520.16;;;18.50;100.00
32131;BME280;18639;50.716;7.086;2023-07-29T03:03:50;99537.84;;;18.56;100.00
32131;BME280;18639;50.716;7.086;2023-07-29T03:06:16;99507.16;;;18.34;100.00
32131;BME280;18639;50.716;7.086;2023-07-29T03:08:41;99526.06;;;18.52;100.00
32131;BME280;18639;50.716;7.086;2023-07-29T03:11:11;99535.22;;;18.56;100.00
32131;BME280;18639;50.716;7.086;2023-07-29T03:13:37;99509.09;;;18.40;100.00
32131;BME280;18639;50.716;7.086;2023-07-29T03:16:11;99526.88;;;18.44;100.00
32131;BME280;18639;50.716;7.086;2023-07-29T03:18:37;99523.81;;;18.41;100.00
32131;BME280;18639;50.716;7.086;2023-07-29T03:21:03;99502.94;;;18.25;100.00
32131;BME280;18639;50.716;7.086;2023-07-29T03:23:29;99530.06;;;18.32;100.00
32131;BME280;18639;50.716;7.086;2023-07-29T03:25:55;99496.28;;;18.06;100.00
32131;BME280;18639;50.716;7.086;2023-07-29T03:28:33;99555.22;;;18.33;100.00
32131;BME280;18639;50.716;7.086;2023-07-29T03:30:59;99548.38;;;18.32;100.00
32131;BME280;18639;50.716;7.086;2023-07-29T03:33:25;99552.94;;;18.30;100.00
32131;BME280;18639;50.716;7.086;2023-07-29T03:35:51;99523.75;;;18.10;100.00
32131;BME280;18639;50.716;7.086;2023-07-29T03:38:16;99554.28;;;18.26;100.00
32131;BME280;18639;50.716;7.086;2023-07-29T03:40:42;99558.38;;;18.20;100.00
32131;BME280;18639;50.716;7.086;2023-07-29T03:43:07;99545.44;;;18.19;100.00
32131;BME280;18639;50.716;7.086;2023-07-29T03:45:33;99541.38;;;18.16;100.00
32131;BME280;18639;50.716;7.086;2023-07-29T03:47:59;99545.44;;;18.19;100.00
32131;BME280;18639;50.716;7.086;2023-07-29T03:50:25;99535.03;;;18.11;100.00
32131;BME280;18639;50.716;7.086;2023-07-29T03:52:51;99510.41;;;17.89;100.00
32131;BME280;18639;50.716;7.086;2023-07-29T03:55:16;99509.22;;;17.99;100.00
32131;BME280;18639;50.716;7.086;2023-07-29T03:57:42;99516.72;;;18.02;100.00
32131;BME280;18639;50.716;7.086;2023-07-29T04:00:07;99519.34;;;18.02;100.00
32131;BME280;18639;50.716;7.086;2023-07-29T04:02:34;99519.03;;;17.97;100.00
32131;BME280;18639;50.716;7.086;2023-07-29T04:05:03;99545.97;;;18.06;100.00
32131;BME280;18639;50.716;7.086;2023-07-29T04:07:28;99516.09;;;17.84;100.00
32131;BME280;18639;50.716;7.086;2023-07-29T04:09:53;99507.81;;;17.73;100.00
32131;BME280;18639;50.716;7.086;2023-07-29T04:12:19;99551.22;;;17.98;100.00
32131;BME280;18639;50.716;7.086;2023-07-29T04:14:46;99536.19;;;17.92;100.00
32131;BME280;18639;50.716;7.086;2023-07-29T04:17:11;99544.19;;;17.98;100.00
32131;BME280;18639;50.716;7.086;2023-07-29T04:19:37;99492.41;;;17.53;100.00
32131;BME280;18639;50.716;7.086;2023-07-29T04:22:02;99545.81;;;17.91;100.00
32131;BME280;18639;50.716;7.086;2023-07-29T04:24:27;99541.09;;;17.87;100.00
32131;BME280;18639;50.716;7.086;2023-07-29T04:26:53;99553.81;;;17.90;100.00
32131;BME280;18639;50.716;7.086;2023-07-29T04:29:18;99555.31;;;17.92;100.00
32131;BME280;18639;50.716;7.086;2023-07-29T04:31:43;99525.59;;;17.77;100.00
32131;BME280;18639;50.716;7.086;2023-07-29T04:34:09;99518.72;;;17.76;100.00
32131;BME280;18639;50.716;7.086;2023-07-29T04:36:34;99522.00;;;17.78;100.00
32131;BME280;18639;50.716;7.086;2023-07-29T04:39:00;99512.69;;;17.76;100.00
32131;BME280;18639;50.716;7.086;2023-07-29T04:41:26;99496.03;;;17.60;100.00
32131;BME280;18639;50.716;7.086;2023-07-29T04:43:51;99543.25;;;17.83;100.00
32131;BME280;18639;50.716;7.086;2023-07-29T04:46:17;99556.28;;;17.91;100.00
32131;BME280;18639;50.716;7.086;2023-07-29T04:48:42;99474.63;;;17.49;100.00
32131;BME280;18639;50.716;7.086;2023-07-29T04:51:08;99548.75;;;17.96;100.00
32131;BME280;18639;50.716;7.086;2023-07-29T04:53:33;99544.53;;;17.87;100.00
32131;BME280;18639;50.716;7.086;2023-07-29T04:56:00;99552.84;;;17.91;100.00
32131;BME280;18639;50.716;7.086;2023-07-29T04:58:25;99547.97;;;17.88;100.00
32131;BME280;18639;50.716;7.086;2023-07-29T05:00:51;99559.88;;;17.98;100.00
32131;BME280;18639;50.716;7.086;2023-07-29T05:03:17;99525.28;;;17.72;100.00
32131;BME280;18639;50.716;7.086;2023-07-29T05:05:42;99563.31;;;17.99;100.00
32131;BME280;18639;50.716;7.086;2023-07-29T05:08:07;99537.66;;;17.86;100.00
32131;BME280;18639;50.716;7.086;2023-07-29T05:10:34;99549.41;;;17.98;100.00
32131;BME280;18639;50.716;7.086;2023-07-29T05:12:59;99557.59;;;18.03;100.00
32131;BME280;18639;50.716;7.086;2023-07-29T05:15:25;99537.34;;;17.89;100.00
32131;BME280;18639;50.716;7.086;2023-07-29T05:17:50;99553.00;;;17.97;100.00
32131;BME280;18639;50.716;7.086;2023-07-29T05:20:16;99556.59;;;17.96;100.00
32131;BME280;18639;50.716;7.086;2023-07-29T05:22:41;99499.81;;;17.66;100.00
32131;BME280;18639;50.716;7.086;2023-07-29T05:25:07;99580.28;;;18.11;100.00
32131;BME280;18639;50.716;7.086;2023-07-29T05:27:32;99562.00;;;18.03;100.00
32131;BME280;18639;50.716;7.086;2023-07-29T05:29:57;99546.16;;;18.04;100.00
32131;BME280;18639;50.716;7.086;2023-07-29T05:32:23;99557.25;;;18.15;100.00
32131;BME280;18639;50.716;7.086;2023-07-29T05:34:48;99574.22;;;18.27;100.00
32131;BME280;18639;50.716;7.086;2023-07-29T05:37:13;99575.81;;;18.28;100.00
32131;BME280;18639;50.716;7.086;2023-07-29T05:39:39;99543.34;;;18.06;100.00
32131;BME280;18639;50.716;7.086;2023-07-29T05:42:04;99590.38;;;18.30;100.00
32131;BME280;18639;50.716;7.086;2023-07-29T05:44:30;99576.50;;;18.22;100.00
32131;BME280;18639;50.716;7.086;2023-07-29T05:46:58;99567.03;;;18.21;100.00
32131;BME280;18639;50.716;7.086;2023-07-29T05:49:23;99574.53;;;18.24;100.00
32131;BME280;18639;50.716;7.086;2023-07-29T05:51:48;99554.78;;;18.21;100.00
32131;BME280;18639;50.716;7.086;2023-07-29T05:54:15;99553.78;;;18.22;100.00
32131;BME280;18639;50.716;7.086;2023-07-29T05:56:40;99557.03;;;18.24;100.00
32131;BME280;18639;50.716;7.086;2023-07-29T05:59:05;99552.63;;;18.25;100.00
32131;BME280;18639;50.716;7.086;2023-07-29T06:01:31;99574.84;;;18.29;100.00
32131;BME280;18639;50.716;7.086;2023-07-29T06:03:56;99586.44;;;18.34;100.00
32131;BME280;18639;50.716;7.086;2023-07-29T06:06:22;99591.38;;;18.37;100.00
32131;BME280;18639;50.716;7.086;2023-07-29T06:08:49;99578.13;;;18.31;100.00
32131;BME280;18639;50.716;7.086;2023-07-29T06:11:14;99568.16;;;18.18;100.00
32131;BME280;18639;50.716;7.086;2023-07-29T06:13:40;99603.94;;;18.42;100.00
32131;BME280;18639;50.716;7.086;2023-07-29T06:16:05;99605.22;;;18.38;100.00
32131;BME280;18639;50.716;7.086;2023-07-29T06:18:30;99611.59;;;18.43;100.00
32131;BME280;18639;50.716;7.086;2023-07-29T06:20:55;99619.13;;;18.46;100.00
32131;BME280;18639;50.716;7.086;2023-07-29T06:23:21;99596.09;;;18.34;100.00
32131;BME280;18639;50.716;7.086;2023-07-29T06:25:46;99594.81;;;18.30;100.00
32131;BME280;18639;50.716;7.086;2023-07-29T06:28:11;99613.44;;;18.43;100.00
32131;BME280;18639;50.716;7.086;2023-07-29T06:30:36;99636.94;;;18.51;100.00
32131;BME280;18639;50.716;7.086;2023-07-29T06:33:02;99640.06;;;18.55;100.00
32131;BME280;18639;50.716;7.086;2023-07-29T06:35:28;99640.72;;;18.57;100.00
32131;BME280;18639;50.716;7.086;2023-07-29T06:37:53;99612.09;;;18.39;100.00
32131;BME280;18639;50.716;7.086;2023-07-29T06:40:18;99639.91;;;18.56;100.00
32131;BME280;18639;50.716;7.086;2023-07-29T06:42:44;99614.41;;;18.42;100.00
32131;BME280;18639;50.716;7.086;2023-07-29T06:45:09;99599.84;;;18.39;100.00
32131;BME280;18639;50.716;7.086;2023-07-29T06:47:35;99625.19;;;18.55;100.00
32131;BME280;18639;50.716;7.086;2023-07-29T06:50:00;99628.63;;;18.64;100.00
32131;BME280;18639;50.716;7.086;2023-07-29T06:52:26;99631.03;;;18.73;100.00
32131;BME280;18639;50.716;7.086;2023-07-29T06:54:51;99643.25;;;18.89;100.00
32131;BME280;18639;50.716;7.086;2023-07-29T06:57:16;99597.31;;;18.70;100.00
32131;BME280;18639;50.716;7.086;2023-07-29T06:59:41;99624.03;;;18.97;100.00
32131;BME280;18639;50.716;7.086;2023-07-29T07:02:07;99625.31;;;19.09;100.00
32131;BME280;18639;50.716;7.086;2023-07-29T07:04:32;99614.00;;;19.16;100.00
32131;BME280;18639;50.716;7.086;2023-07-29T07:06:58;99639.53;;;19.45;100.00
32131;BME280;18639;50.716;7.086;2023-07-29T07:09:24;99633.97;;;19.48;100.00
32131;BME280;18639;50.716;7.086;2023-07-29T07:11:49;99638.84;;;19.51;100.00
32131;BME280;18639;50.716;7.086;2023-07-29T07:14:14;99632.84;;;19.43;100.00
32131;BME280;18639;50.716;7.086;2023-07-29T07:16:39;99620.63;;;19.27;100.00
32131;BME280;18639;50.716;7.086;2023-07-29T07:19:05;99651.03;;;19.36;100.00
32131;BME280;18639;50.716;7.086;2023-07-29T07:21:30;99609.13;;;19.05;100.00
32131;BME280;18639;50.716;7.086;2023-07-29T07:23:57;99622.69;;;19.09;100.00
32131;BME280;18639;50.716;7.086;2023-07-29T07:26:22;99594.00;;;18.84;100.00
32131;BME280;18639;50.716;7.086;2023-07-29T07:28:48;99661.06;;;19.32;100.00
32131;BME280;18639;50.716;7.086;2023-07-29T07:31:13;99580.25;;;18.82;100.00
32131;BME280;18639;50.716;7.086;2023-07-29T07:33:38;99611.28;;;19.02;100.00
32131;BME280;18639;50.716;7.086;2023-07-29T07:36:04;99644.38;;;19.25;100.00
32131;BME280;18639;50.716;7.086;2023-07-29T07:38:29;99642.59;;;19.18;100.00
32131;BME280;18639;50.716;7.086;2023-07-29T07:40:55;99658.88;;;19.44;100.00
32131;BME280;18639;50.716;7.086;2023-07-29T07:43:21;99668.69;;;19.50;100.00
32131;BME280;18639;50.716;7.086;2023-07-29T07:45:46;99655.56;;;19.50;100.00
32131;BME280;18639;50.716;7.086;2023-07-29T07:48:12;99605.22;;;19.32;100.00
32131;BME280;18639;50.716;7.086;2023-07-29T07:50:38;99592.25;;;19.39;100.00
32131;BME280;18639;50.716;7.086;2023-07-29T07:53:03;99670.06;;;19.92;100.00
32131;BME280;18639;50.716;7.086;2023-07-29T07:55:29;99627.03;;;19.78;100.00
32131;BME280;18639;50.716;7.086;2023-07-29T07:57:54;99656.81;;;20.08;100.00
32131;BME280;18639;50.716;7.086;2023-07-29T08:00:20;99626.56;;;19.97;100.00
32131;BME280;18639;50.716;7.086;2023-07-29T08:02:45;99627.41;;;20.12;100.00
32131;BME280;18639;50.716;7.086;2023-07-29T08:05:11;99622.63;;;20.16;100.00
32131;BME280;18639;50.716;7.086;2023-07-29T08:07:36;99663.78;;;20.38;100.00
32131;BME280;18639;50.716;7.086;2023-07-29T08:10:01;99672.50;;;20.31;100.00
32131;BME280;18639;50.716;7.086;2023-07-29T08:12:27;99651.38;;;20.09;100.00
32131;BME280;18639;50.716;7.086;2023-07-29T08:14:52;99665.59;;;20.15;100.00
32131;BME280;18639;50.716;7.086;2023-07-29T08:17:17;99670.56;;;20.10;100.00
32131;BME280;18639;50.716;7.086;2023-07-29T08:19:43;99673.25;;;20.02;100.00
32131;BME280;18639;50.716;7.086;2023-07-29T08:22:09;99660.88;;;19.88;100.00
32131;BME280;18639;50.716;7.086;2023-07-29T08:24:34;99662.88;;;19.86;100.00
32131;BME280;18639;50.716;7.086;2023-07-29T08:26:59;99661.69;;;19.88;100.00
32131;BME280;18639;50.716;7.086;2023-07-29T08:29:25;99663.47;;;19.96;100.00
32131;BME280;18639;50.716;7.086;2023-07-29T08:31:50;99667.06;;;19.95;100.00
32131;BME280;18639;50.716;7.086;2023-07-29T08:34:16;99664.56;;;20.01;100.00
32131;BME280;18639;50.716;7.086;2023-07-29T08:36:42;99679.59;;;20.07;100.00
32131;BME280;18639;50.716;7.086;2023-07-29T08:39:07;99664.44;;;19.95;100.00
32131;BME280;18639;50.716;7.086;2023-07-29T08:41:38;99673.41;;;20.00;100.00
32131;BME280;18639;50.716;7.086;2023-07-29T08:44:21;99679.13;;;20.04;100.00
32131;BME280;18639;50.716;7.086;2023-07-29T08:46:50;99678.63;;;19.86;100.00
32131;BME280;18639;50.716;7.086;2023-07-29T08:49:18;99685.97;;;19.90;100.00
32131;BME280;18639;50.716;7.086;2023-07-29T08:51:44;99681.13;;;19.79;100.00
32131;BME280;18639;50.716;7.086;2023-07-29T08:54:10;99664.84;;;19.61;100.00
32131;BME280;18639;50.716;7.086;2023-07-29T08:56:36;99683.38;;;19.59;100.00
32131;BME280;18639;50.716;7.086;2023-07-29T08:59:02;99675.75;;;19.50;100.00
32131;BME280;18639;50.716;7.086;2023-07-29T09:01:29;99679.84;;;19.44;100.00
32131;BME280;18639;50.716;7.086;2023-07-29T09:03:56;99690.81;;;19.40;100.00
32131;BME280;18639;50.716;7.086;2023-07-29T09:06:23;99697.25;;;19.29;100.00
32131;BME280;18639;50.716;7.086;2023-07-29T09:08:51;99707.09;;;19.27;100.00
32131;BME280;18639;50.716;7.086;2023-07-29T09:11:18;99667.25;;;19.01;100.00
32131;BME280;18639;50.716;7.086;2023-07-29T09:13:44;99694.69;;;19.13;100.00
32131;BME280;18639;50.716;7.086;2023-07-29T09:16:09;99702.41;;;19.14;100.00
32131;BME280;18639;50.716;7.086;2023-07-29T09:18:35;99698.34;;;19.04;100.00
32131;BME280;18639;50.716;7.086;2023-07-29T09:21:00;99691.47;;;19.03;100.00
32131;BME280;18639;50.716;7.086;2023-07-29T09:23:26;99707.47;;;19.08;100.00
32131;BME280;18639;50.716;7.086;2023-07-29T09:26:00;99698.69;;;19.01;100.00
32131;BME280;18639;50.716;7.086;2023-07-29T09:28:25;99699.66;;;19.00;100.00
32131;BME280;18639;50.716;7.086;2023-07-29T09:30:52;99695.75;;;18.96;100.00
32131;BME280;18639;50.716;7.086;2023-07-29T09:33:18;99664.09;;;18.74;100.00
32131;BME280;18639;50.716;7.086;2023-07-29T09:35:44;99704.75;;;19.01;100.00
32131;BME280;18639;50.716;7.086;2023-07-29T09:38:14;99659.31;;;18.78;100.00
32131;BME280;18639;50.716;7.086;2023-07-29T09:40:41;99704.41;;;19.04;100.00
32131;BME280;18639;50.716;7.086;2023-07-29T09:43:08;99706.19;;;19.12;100.00
32131;BME280;18639;50.716;7.086;2023-07-29T09:45:34;99673.47;;;19.00;100.00
32131;BME280;18639;50.716;7.086;2023-07-29T09:48:01;99703.88;;;19.17;100.00
32131;BME280;18639;50.716;7.086;2023-07-29T09:50:27;99704.50;;;19.19;100.00
32131;BME280;18639;50.716;7.086;2023-07-29T09:52:54;99688.34;;;19.07;100.00
32131;BME280;18639;50.716;7.086;2023-07-29T09:55:22;99705.19;;;19.13;100.00
32131;BME280;18639;50.716;7.086;2023-07-29T09:57:59;99707.13;;;19.19;100.00
32131;BME280;18639;50.716;7.086;2023-07-29T10:00:28;99707.94;;;19.19;100.00
32131;BME280;18639;50.716;7.086;2023-07-29T10:02:54;99680.38;;;19.01;100.00
32131;BME280;18639;50.716;7.086;2023-07-29T10:05:21;99682.00;;;19.02;100.00
32131;BME280;18639;50.716;7.086;2023-07-29T10:07:48;99698.03;;;19.07;100.00
32131;BME280;18639;50.716;7.086;2023-07-29T10:10:14;99696.19;;;19.15;100.00
32131;BME280;18639;50.716;7.086;2023-07-29T10:12:41;99703.53;;;19.20;100.00
32131;BME280;18639;50.716;7.086;2023-07-29T10:15:08;99720.50;;;19.32;100.00
32131;BME280;18639;50.716;7.086;2023-07-29T10:17:38;99704.47;;;19.27;100.00
32131;BME280;18639;50.716;7.086;2023-07-29T10:20:05;99702.19;;;19.24;100.00
32131;BME280;18639;50.716;7.086;2023-07-29T10:22:39;99736.34;;;19.47;100.00
32131;BME280;18639;50.716;7.086;2023-07-29T10:25:18;99740.94;;;19.45;100.00
32131;BME280;18639;50.716;7.086;2023-07-29T10:27:56;99741.09;;;19.43;100.00
32131;BME280;18639;50.716;7.086;2023-07-29T10:30:24;99720.22;;;19.27;100.00
32131;BME280;18639;50.716;7.086;2023-07-29T10:32:49;99719.59;;;19.17;100.00
32131;BME280;18639;50.716;7.086;2023-07-29T10:35:15;99710.72;;;19.18;100.00
32131;BME280;18639;50.716;7.086;2023-07-29T10:37:42;99736.75;;;19.27;100.00
32131;BME280;18639;50.716;7.086;2023-07-29T10:40:10;99739.19;;;19.29;100.00
32131;BME280;18639;50.716;7.086;2023-07-29T10:42:37;99747.22;;;19.27;100.00
32131;BME280;18639;50.716;7.086;2023-07-29T10:45:20;99741.69;;;19.22;100.00
32131;BME280;18639;50.716;7.086;2023-07-29T10:47:47;99721.91;;;19.04;100.00
32131;BME280;18639;50.716;7.086;2023-07-29T10:50:21;99733.06;;;19.06;100.00
32131;BME280;18639;50.716;7.086;2023-07-29T10:52:52;99719.50;;;18.94;100.00
32131;BME280;18639;50.716;7.086;2023-07-29T10:55:35;99735.16;;;19.10;100.00
32131;BME280;18639;50.716;7.086;2023-07-29T11:00:35;99718.63;;;19.10;100.00
32131;BME280;18639;50.716;7.086;2023-07-29T11:03:02;99735.78;;;19.20;100.00
32131;BME280;18639;50.716;7.086;2023-07-29T11:05:45;99733.00;;;19.22;100.00
32131;BME280;18639;50.716;7.086;2023-07-29T11:11:05;99725.97;;;19.22;100.00
32131;BME280;18639;50.716;7.086;2023-07-29T11:13:34;99715.59;;;19.29;100.00
32131;BME280;18639;50.716;7.086;2023-07-29T11:16:00;99721.78;;;19.44;100.00
32131;BME280;18639;50.716;7.086;2023-07-29T11:18:29;99719.72;;;19.62;100.00
32131;BME280;18639;50.716;7.086;2023-07-29T11:20:54;99724.56;;;19.82;100.00
32131;BME280;18639;50.716;7.086;2023-07-29T11:23:27;99712.66;;;19.94;100.00
32131;BME280;18639;50.716;7.086;2023-07-29T11:25:53;99705.19;;;19.83;100.00
32131;BME280;18639;50.716;7.086;2023-07-29T11:28:18;99700.94;;;19.82;100.00
32131;BME280;18639;50.716;7.086;2023-07-29T11:30:44;99718.38;;;19.97;100.00
32131;BME280;18639;50.716;7.086;2023-07-29T11:33:09;99707.88;;;19.97;100.00
32131;BME280;18639;50.716;7.086;2023-07-29T11:35:35;99704.16;;;19.92;100.00
32131;BME280;18639;50.716;7.086;2023-07-29T11:38:00;99725.72;;;20.02;100.00
32131;BME280;18639;50.716;7.086;2023-07-29T11:40:25;99720.22;;;19.89;100.00
32131;BME280;18639;50.716;7.086;2023-07-29T11:42:52;99727.06;;;19.98;100.00
32131;BME280;18639;50.716;7.086;2023-07-29T11:45:18;99719.81;;;20.00;100.00
32131;BME280;18639;50.716;7.086;2023-07-29T11:47:44;99703.66;;;19.88;100.00
32131;BME280;18639;50.716;7.086;2023-07-29T11:50:10;99702.13;;;20.02;100.00
32131;BME280;18639;50.716;7.086;2023-07-29T11:52:37;99663.22;;;19.83;100.00
32131;BME280;18639;50.716;7.086;2023-07-29T11:55:05;99640.63;;;19.82;100.00
32131;BME280;18639;50.716;7.086;2023-07-29T11:57:34;99685.81;;;20.29;100.00
32131;BME280;18639;50.716;7.086;2023-07-29T12:00:02;99681.50;;;20.36;100.00
32131;BME280;18639;50.716;7.086;2023-07-29T12:02:29;99675.13;;;20.53;100.00
32131;BME280;18639;50.716;7.086;2023-07-29T12:04:54;99682.81;;;20.70;100.00
32131;BME280;18639;50.716;7.086;2023-07-29T12:07:20;99684.56;;;20.77;100.00
32131;BME280;18639;50.716;7.086;2023-07-29T12:09:46;99690.19;;;21.04;100.00
32131;BME280;18639;50.716;7.086;2023-07-29T12:12:12;99670.31;;;21.01;100.00
32131;BME280;18639;50.716;7.086;2023-07-29T12:14:37;99685.66;;;20.97;100.00
32131;BME280;18639;50.716;7.086;2023-07-29T12:17:05;99649.06;;;20.67;100.00
32131;BME280;18639;50.716;7.086;2023-07-29T12:19:34;99626.66;;;20.41;100.00
32131;BME280;18639;50.716;7.086;2023-07-29T12:22:01;99623.53;;;20.46;100.00
32131;BME280;18639;50.716;7.086;2023-07-29T12:24:27;99665.09;;;20.72;100.00
32131;BME280;18639;50.716;7.086;2023-07-29T12:26:52;99663.34;;;20.64;100.00
32131;BME280;18639;50.716;7.086;2023-07-29T12:29:19;99674.78;;;20.71;100.00
32131;BME280;18639;50.716;7.086;2023-07-29T12:31:47;99667.25;;;20.68;100.00
32131;BME280;18639;50.716;7.086;2023-07-29T12:34:20;99665.16;;;20.78;100.00
32131;BME280;18639;50.716;7.086;2023-07-29T12:36:50;99667.06;;;20.70;100.00
32131;BME280;18639;50.716;7.086;2023-07-29T12:39:26;99667.25;;;20.68;100.00
32131;BME280;18639;50.716;7.086;2023-07-29T12:41:53;99660.91;;;20.63;100.00
32131;BME280;18639;50.716;7.086;2023-07-29T12:44:18;99659.28;;;20.62;100.00
32131;BME280;18639;50.716;7.086;2023-07-29T12:46:44;99664.28;;;20.71;100.00
32131;BME280;18639;50.716;7.086;2023-07-29T12:49:09;99654.50;;;20.65;100.00
32131;BME280;18639;50.716;7.086;2023-07-29T12:51:35;99655.03;;;20.75;100.00
32131;BME280;18639;50.716;7.086;2023-07-29T12:54:01;99619.09;;;20.61;100.00
32131;BME280;18639;50.716;7.086;2023-07-29T12:56:28;99639.38;;;20.82;100.00
32131;BME280;18639;50.716;7.086;2023-07-29T12:58:53;99624.59;;;20.81;100.00
32131;BME280;18639;50.716;7.086;2023-07-29T13:01:19;99645.59;;;20.95;100.00